Time;durP1;ratioP1;P1;durP2;ratioP2;P2;SDS_P1;SDS_P2;PMS_P1;PMS_P2;Temp;Humidity;BMP_temperature;BMP_pressure;BME280_temperature;BME280_humidity;BME280_pressure;Samples;Min_cycle;Max_cycle;Signal;HPM_P1;HPM_P2
2023/02/17 00:00:35;;;;;;;;;;;;;;;5.26;51.57;93634.41;2056912;69;20046;-76
2023/02/17 00:03:01;;;;;;;;;;;;;;;5.68;50.31;93636.94;2057535;69;20493;-77
2023/02/17 00:05:26;;;;;;;;;;;;;;;5.84;49.92;93644.03;2056284;69;20473;-76
2023/02/17 00:07:52;;;;;;;;;;;;;;;6.00;49.01;93642.00;2057455;69;20533;-75
2023/02/17 00:10:18;;;;;;;;;;;;;;;5.97;48.93;93638.31;2057471;69;20165;-76
2023/02/17 00:12:43;;;;;;;;;;;;;;;5.84;48.64;93646.84;2057452;69;20124;-75
2023/02/17 00:15:09;;;;;;;;;;;;;;;5.13;51.71;93652.03;2057440;69;20056;-77
2023/02/17 00:17:34;;;;;;;;;;;;;;;5.67;50.02;93650.16;2057192;69;20498;-77
2023/02/17 00:20:00;;;;;;;;;;;;;;;5.68;49.34;93648.88;2056758;69;20152;-75
2023/02/17 00:22:25;;;;;;;;;;;;;;;5.91;49.40;93639.75;2056966;69;20516;-75
2023/02/17 00:24:51;;;;;;;;;;;;;;;5.60;49.61;93643.25;2057077;69;20082;-77
2023/02/17 00:27:16;;;;;;;;;;;;;;;5.80;49.18;93638.06;2057334;69;20092;-76
2023/02/17 00:29:42;;;;;;;;;;;;;;;5.89;49.15;93633.97;2057219;69;20520;-75
2023/02/17 00:32:09;;;;;;;;;;;;;;;5.93;49.19;93632.34;2057670;69;20063;-76
2023/02/17 00:34:35;;;;;;;;;;;;;;;5.77;48.59;93641.97;2057819;69;20101;-77
2023/02/17 00:37:00;;;;;;;;;;;;;;;5.77;49.41;93641.97;2057034;69;20087;-78
2023/02/17 00:39:26;;;;;;;;;;;;;;;5.88;49.51;93643.69;2057522;69;20058;-78
2023/02/17 00:41:51;;;;;;;;;;;;;;;6.00;48.91;93642.00;2056852;69;20138;-74
2023/02/17 00:44:18;;;;;;;;;;;;;;;6.27;47.26;93645.19;2056333;69;20052;-76
2023/02/17 00:46:44;;;;;;;;;;;;;;;5.73;48.52;93653.53;2057960;69;20100;-75
2023/02/17 00:49:21;;;;;;;;;;;;;;;5.95;48.60;93652.06;2057753;69;20432;-77
2023/02/17 00:51:46;;;;;;;;;;;;;;;5.99;48.46;93648.91;2055445;69;20594;-75
2023/02/17 00:54:12;;;;;;;;;;;;;;;5.73;48.98;93655.59;2057035;69;20069;-77
2023/02/17 00:56:38;;;;;;;;;;;;;;;5.97;48.88;93660.66;2057350;69;20132;-76
2023/02/17 00:59:03;;;;;;;;;;;;;;;5.95;48.92;93659.72;2056684;69;20113;-76
2023/02/17 01:01:29;;;;;;;;;;;;;;;6.04;48.10;93650.78;2057440;69;20066;-75
2023/02/17 01:03:54;;;;;;;;;;;;;;;5.58;49.35;93661.88;2057331;69;20049;-74
2023/02/17 01:06:30;;;;;;;;;;;;;;;5.56;49.32;93659.63;2057481;69;20133;-77
2023/02/17 01:08:56;;;;;;;;;;;;;;;5.80;48.76;93661.16;2056753;69;20062;-76
2023/02/17 01:11:23;;;;;;;;;;;;;;;6.00;47.93;93653.19;2056338;69;20101;-77
2023/02/17 01:13:48;;;;;;;;;;;;;;;5.92;47.50;93652.47;2057577;69;20046;-77
2023/02/17 01:16:16;;;;;;;;;;;;;;;5.89;47.67;93650.75;2057918;69;20424;-76
2023/02/17 01:18:41;;;;;;;;;;;;;;;5.98;47.68;93642.59;2057228;69;20081;-77
2023/02/17 01:21:14;;;;;;;;;;;;;;;5.76;48.31;93652.41;2057160;69;20086;-76
2023/02/17 01:23:40;;;;;;;;;;;;;;;5.85;48.07;93642.72;2058250;69;20057;-76
2023/02/17 01:26:06;;;;;;;;;;;;;;;5.84;48.75;93644.78;2057986;69;20082;-77
2023/02/17 01:28:34;;;;;;;;;;;;;;;5.92;47.41;93644.81;2056833;69;20066;-77
2023/02/17 01:31:04;;;;;;;;;;;;;;;5.82;48.07;93644.59;2057733;69;20052;-76
2023/02/17 01:33:29;;;;;;;;;;;;;;;5.84;48.35;93647.56;2058421;69;20057;-74
2023/02/17 01:35:55;;;;;;;;;;;;;;;5.82;49.38;93635.47;2057533;69;20038;-76
2023/02/17 01:38:20;;;;;;;;;;;;;;;5.81;48.88;93628.38;2058070;69;20053;-75
2023/02/17 01:40:47;;;;;;;;;;;;;;;5.83;48.31;93634.16;2055953;69;20439;-75
2023/02/17 01:43:15;;;;;;;;;;;;;;;5.89;48.10;93633.97;2057399;69;20049;-72
2023/02/17 01:45:45;;;;;;;;;;;;;;;5.94;48.23;93624.69;2057246;69;20048;-77
2023/02/17 01:48:13;;;;;;;;;;;;;;;6.02;47.70;93625.44;2058215;69;20145;-77
2023/02/17 01:50:51;;;;;;;;;;;;;;;5.79;48.95;93639.38;2058172;69;20121;-77
2023/02/17 01:53:21;;;;;;;;;;;;;;;5.75;49.92;93634.16;2055371;69;20050;-77
2023/02/17 01:55:47;;;;;;;;;;;;;;;5.78;49.60;93621.13;2056267;69;20050;-76
2023/02/17 01:58:14;;;;;;;;;;;;;;;5.68;49.60;93620.16;2054481;70;20077;-77
2023/02/17 02:00:40;;;;;;;;;;;;;;;5.83;48.75;93626.53;2055937;69;20209;-77
2023/02/17 02:03:08;;;;;;;;;;;;;;;5.75;49.12;93617.38;2057061;69;20086;-78
2023/02/17 02:05:33;;;;;;;;;;;;;;;5.88;48.39;93604.53;2058262;69;20045;-78
2023/02/17 02:07:59;;;;;;;;;;;;;;;5.51;49.00;93607.50;2057633;69;20058;-77
2023/02/17 02:10:24;;;;;;;;;;;;;;;5.82;48.55;93618.72;2058089;69;20145;-78
2023/02/17 02:12:50;;;;;;;;;;;;;;;5.80;48.67;93610.88;2057294;69;20105;-77
2023/02/17 02:15:17;;;;;;;;;;;;;;;5.79;49.23;93603.78;2057564;69;20058;-77
2023/02/17 02:18:05;;;;;;;;;;;;;;;5.69;49.26;93616.84;2056582;69;20076;-73
2023/02/17 02:20:44;;;;;;;;;;;;;;;5.75;49.43;93606.22;2057079;69;20078;-75
2023/02/17 02:23:16;;;;;;;;;;;;;;;5.83;49.32;93601.38;2056361;69;20185;-75
2023/02/17 02:25:44;;;;;;;;;;;;;;;4.78;52.23;93611.75;2057263;69;20145;-77
2023/02/17 02:28:13;;;;;;;;;;;;;;;5.18;51.29;93620.44;2057756;69;20054;-73
2023/02/17 02:30:41;;;;;;;;;;;;;;;5.48;50.63;93614.19;2054368;69;20074;-72
2023/02/17 02:33:27;;;;;;;;;;;;;;;5.61;49.84;93600.06;2056742;69;20060;-74
2023/02/17 02:35:52;;;;;;;;;;;;;;;5.49;50.15;93606.53;2057366;69;20080;-76
2023/02/17 02:38:25;;;;;;;;;;;;;;;5.89;47.90;93592.06;2058068;69;20042;-75
2023/02/17 02:41:01;;;;;;;;;;;;;;;5.39;50.05;93597.22;2056321;69;20069;-73
2023/02/17 02:43:28;;;;;;;;;;;;;;;5.58;49.96;93595.56;2057047;69;20140;-75
2023/02/17 02:45:54;;;;;;;;;;;;;;;5.41;51.54;93603.75;2056586;69;20477;-75
2023/02/17 02:48:19;;;;;;;;;;;;;;;5.59;50.42;93588.69;2057720;69;20119;-77
2023/02/17 02:50:48;;;;;;;;;;;;;;;4.93;51.24;93581.09;2056708;69;20152;-76
2023/02/17 02:53:32;;;;;;;;;;;;;;;4.95;51.98;93583.31;2058037;69;20050;-78
2023/02/17 02:55:58;;;;;;;;;;;;;;;5.13;51.45;93596.22;2054896;69;20062;-77
2023/02/17 02:58:42;;;;;;;;;;;;;;;5.19;50.96;93593.28;2057117;69;20046;-77
2023/02/17 03:01:12;;;;;;;;;;;;;;;5.26;50.51;93590.50;2057111;69;20050;-77
2023/02/17 03:03:54;;;;;;;;;;;;;;;5.71;47.84;93594.66;2057104;69;20474;-76
2023/02/17 03:06:35;;;;;;;;;;;;;;;4.97;51.01;93606.59;2056324;69;20158;-75
2023/02/17 03:09:06;;;;;;;;;;;;;;;5.03;51.82;93590.44;2057285;69;20181;-74
2023/02/17 03:11:31;;;;;;;;;;;;;;;5.34;50.05;93582.88;2055979;69;20154;-76
2023/02/17 03:14:01;;;;;;;;;;;;;;;4.84;50.94;93582.38;2057081;69;20162;-76
2023/02/17 03:16:27;;;;;;;;;;;;;;;5.16;50.53;93586.00;2056683;69;20042;-75
2023/02/17 03:18:52;;;;;;;;;;;;;;;5.42;49.76;93579.38;2057709;69;20165;-75
2023/02/17 03:21:18;;;;;;;;;;;;;;;5.56;48.63;93578.63;2057383;69;20057;-75
2023/02/17 03:23:43;;;;;;;;;;;;;;;5.51;49.10;93578.81;2057614;69;20060;-74
2023/02/17 03:26:09;;;;;;;;;;;;;;;5.57;49.04;93588.50;2057428;69;20054;-74
2023/02/17 03:28:34;;;;;;;;;;;;;;;5.68;48.76;93572.66;2057529;69;20120;-72
2023/02/17 03:31:00;;;;;;;;;;;;;;;5.49;48.68;93584.19;2057466;69;20156;-74
2023/02/17 03:33:25;;;;;;;;;;;;;;;5.43;49.27;93589.22;2057473;69;20494;-76
2023/02/17 03:35:51;;;;;;;;;;;;;;;5.40;49.09;93590.34;2058170;69;20562;-75
2023/02/17 03:38:16;;;;;;;;;;;;;;;5.64;48.34;93584.22;2058334;69;20053;-77
2023/02/17 03:40:42;;;;;;;;;;;;;;;5.68;48.48;93590.19;2057924;69;20078;-77
2023/02/17 03:43:07;;;;;;;;;;;;;;;5.66;47.78;93592.78;2057730;69;20053;-77
2023/02/17 03:45:34;;;;;;;;;;;;;;;5.55;49.18;93582.00;2057544;69;20490;-77
2023/02/17 03:48:00;;;;;;;;;;;;;;;5.69;48.80;93582.56;2057496;69;20137;-77
2023/02/17 03:50:25;;;;;;;;;;;;;;;5.40;49.34;93590.34;2057274;69;20492;-76
2023/02/17 03:52:50;;;;;;;;;;;;;;;5.51;49.58;93587.19;2057706;69;20061;-76
2023/02/17 03:55:16;;;;;;;;;;;;;;;5.53;48.98;93573.41;2057723;69;20050;-77
2023/02/17 03:57:41;;;;;;;;;;;;;;;5.70;49.41;93593.16;2057401;69;20061;-77
2023/02/17 04:00:08;;;;;;;;;;;;;;;5.69;48.86;93594.47;2057279;69;20088;-74
2023/02/17 04:02:42;;;;;;;;;;;;;;;5.78;48.74;93587.59;2057525;69;20068;-77
2023/02/17 04:05:07;;;;;;;;;;;;;;;5.79;48.35;93583.50;2057409;69;20172;-77
2023/02/17 04:07:33;;;;;;;;;;;;;;;5.33;49.46;93583.44;2056488;69;20046;-76
2023/02/17 04:09:58;;;;;;;;;;;;;;;5.63;48.89;93587.56;2054813;69;20050;-76
2023/02/17 04:12:24;;;;;;;;;;;;;;;5.57;49.51;93584.97;2057965;69;20045;-77
2023/02/17 04:14:49;;;;;;;;;;;;;;;5.61;47.63;93588.13;2057998;69;20487;-76
2023/02/17 04:17:14;;;;;;;;;;;;;;;5.52;48.26;93588.69;2057343;69;20057;-77
2023/02/17 04:19:40;;;;;;;;;;;;;;;5.71;48.06;93589.06;2058024;69;20049;-77
2023/02/17 04:22:07;;;;;;;;;;;;;;;5.64;48.56;93591.88;2057311;69;20050;-78
2023/02/17 04:24:34;;;;;;;;;;;;;;;5.64;48.70;93598.19;2057569;69;20109;-78
2023/02/17 04:26:59;;;;;;;;;;;;;;;5.52;49.39;93595.00;2057238;69;20050;-78
2023/02/17 04:29:25;;;;;;;;;;;;;;;5.70;49.48;93598.00;2057628;69;20461;-77
2023/02/17 04:31:50;;;;;;;;;;;;;;;5.60;49.23;93595.03;2057489;69;20096;-77
2023/02/17 04:34:15;;;;;;;;;;;;;;;5.60;48.95;93592.25;2058004;69;20615;-74
2023/02/17 04:36:41;;;;;;;;;;;;;;;5.81;48.10;93603.97;2057474;69;20057;-76
2023/02/17 04:39:06;;;;;;;;;;;;;;;5.32;49.77;93609.88;2057425;69;20062;-78
2023/02/17 04:41:32;;;;;;;;;;;;;;;5.07;50.89;93601.25;2058050;69;20046;-78
2023/02/17 04:43:57;;;;;;;;;;;;;;;5.25;50.62;93597.38;2056260;69;20565;-77
2023/02/17 04:46:22;;;;;;;;;;;;;;;5.13;50.37;93601.81;2057383;69;20536;-76
2023/02/17 04:48:48;;;;;;;;;;;;;;;5.00;50.74;93604.75;2057745;69;20510;-76
2023/02/17 04:51:13;;;;;;;;;;;;;;;5.15;50.46;93595.69;2058357;69;20054;-77
2023/02/17 04:53:39;;;;;;;;;;;;;;;5.21;50.08;93596.25;2058897;69;20157;-77
2023/02/17 04:56:04;;;;;;;;;;;;;;;5.32;50.51;93590.34;2057304;69;20062;-77
2023/02/17 04:58:30;;;;;;;;;;;;;;;5.25;50.19;93591.78;2058445;69;20053;-78
2023/02/17 05:00:57;;;;;;;;;;;;;;;5.28;50.83;93593.47;2056845;69;22247;-77
2023/02/17 05:03:23;;;;;;;;;;;;;;;5.21;51.11;93585.81;2057627;69;20611;-78
2023/02/17 05:05:48;;;;;;;;;;;;;;;5.08;51.07;93594.34;2057619;69;20046;-74
2023/02/17 05:08:14;;;;;;;;;;;;;;;5.06;51.14;93600.50;2058236;69;20054;-78
2023/02/17 05:10:40;;;;;;;;;;;;;;;5.07;51.10;93585.22;2058081;69;20505;-78
2023/02/17 05:13:05;;;;;;;;;;;;;;;5.23;51.06;93590.88;2058532;69;20152;-78
2023/02/17 05:15:31;;;;;;;;;;;;;;;5.22;50.57;93583.78;2057552;69;20054;-77
2023/02/17 05:17:56;;;;;;;;;;;;;;;4.79;52.18;93596.50;2060145;69;20460;-77
2023/02/17 05:20:21;;;;;;;;;;;;;;;5.14;51.15;93600.53;2054190;70;20053;-76
2023/02/17 05:22:47;;;;;;;;;;;;;;;5.21;50.56;93590.66;2056986;69;20042;-75
2023/02/17 05:25:13;;;;;;;;;;;;;;;5.13;50.55;93593.44;2057631;69;20066;-78
2023/02/17 05:27:38;;;;;;;;;;;;;;;5.08;51.00;93597.13;2056818;69;20118;-76
2023/02/17 05:30:04;;;;;;;;;;;;;;;5.08;50.60;93603.47;2055963;69;20066;-77
2023/02/17 05:32:29;;;;;;;;;;;;;;;5.11;50.76;93598.84;2058081;69;20054;-78
2023/02/17 05:34:55;;;;;;;;;;;;;;;5.13;50.79;93599.00;2057606;69;20105;-77
2023/02/17 05:37:20;;;;;;;;;;;;;;;5.20;50.79;93597.56;2058264;69;20053;-76
2023/02/17 05:39:46;;;;;;;;;;;;;;;5.14;51.12;93591.41;2058164;69;20120;-75
2023/02/17 05:42:11;;;;;;;;;;;;;;;4.61;51.97;93589.91;2057800;69;20054;-76
2023/02/17 05:44:36;;;;;;;;;;;;;;;4.80;51.64;93589.59;2057998;69;20410;-73
2023/02/17 05:47:02;;;;;;;;;;;;;;;5.15;50.56;93585.25;2058153;69;20065;-75
2023/02/17 05:49:29;;;;;;;;;;;;;;;5.19;50.51;93579.31;2057501;69;20573;-76
2023/02/17 05:51:55;;;;;;;;;;;;;;;5.15;51.40;93584.53;2057817;69;20120;-76
2023/02/17 05:54:20;;;;;;;;;;;;;;;4.91;51.62;93589.28;2058039;69;20482;-77
2023/02/17 05:56:46;;;;;;;;;;;;;;;5.20;50.65;93583.59;2058053;69;20061;-77
2023/02/17 05:59:11;;;;;;;;;;;;;;;5.21;51.30;93577.44;2057934;69;20060;-74
2023/02/17 06:01:36;;;;;;;;;;;;;;;5.17;50.36;93576.31;2057013;69;20056;-78
2023/02/17 06:04:02;;;;;;;;;;;;;;;5.29;49.94;93583.06;2057085;69;20098;-77
2023/02/17 06:06:28;;;;;;;;;;;;;;;5.04;51.10;93577.22;2057751;69;20076;-75
2023/02/17 06:08:53;;;;;;;;;;;;;;;4.81;51.62;93577.13;2057883;69;20073;-76
2023/02/17 06:11:18;;;;;;;;;;;;;;;5.31;49.90;93584.00;2058050;69;20052;-77
2023/02/17 06:13:44;;;;;;;;;;;;;;;5.26;50.68;93596.06;2058269;69;20161;-77
2023/02/17 06:16:09;;;;;;;;;;;;;;;4.72;51.66;93586.03;2057716;69;20062;-75
2023/02/17 06:18:35;;;;;;;;;;;;;;;5.16;51.08;93595.13;2056124;69;20143;-73
2023/02/17 06:21:00;;;;;;;;;;;;;;;5.27;50.52;93597.59;2057665;69;20089;-73
2023/02/17 06:23:26;;;;;;;;;;;;;;;5.35;50.28;93595.53;2057465;69;20076;-73
2023/02/17 06:25:52;;;;;;;;;;;;;;;5.43;49.49;93589.97;2057775;69;20046;-73
2023/02/17 06:28:17;;;;;;;;;;;;;;;5.35;50.12;93584.38;2058389;69;20096;-75
2023/02/17 06:30:43;;;;;;;;;;;;;;;5.65;48.25;93582.94;2058045;69;20177;-76
2023/02/17 06:33:09;;;;;;;;;;;;;;;5.57;48.65;93585.69;2056727;69;20156;-75
2023/02/17 06:35:35;;;;;;;;;;;;;;;5.71;48.13;93583.47;2058040;69;20547;-75
2023/02/17 06:38:00;;;;;;;;;;;;;;;5.58;48.18;93584.41;2058350;69;20451;-75
2023/02/17 06:40:25;;;;;;;;;;;;;;;5.69;48.67;93576.97;2057421;69;20054;-76
2023/02/17 06:42:51;;;;;;;;;;;;;;;5.94;48.17;93588.34;2057707;69;20061;-75
2023/02/17 06:45:16;;;;;;;;;;;;;;;5.93;48.67;93590.41;2058497;69;20141;-77
2023/02/17 06:47:42;;;;;;;;;;;;;;;5.93;47.11;93603.66;2056389;69;20133;-75
2023/02/17 06:50:08;;;;;;;;;;;;;;;6.02;47.18;93591.91;2057266;69;20151;-73
2023/02/17 06:52:33;;;;;;;;;;;;;;;6.06;46.67;93600.66;2056555;69;20113;-75
2023/02/17 06:54:59;;;;;;;;;;;;;;;6.22;46.13;93599.31;2057485;69;20082;-73
2023/02/17 06:57:24;;;;;;;;;;;;;;;6.17;47.40;93611.44;2057343;69;20398;-76
2023/02/17 06:59:50;;;;;;;;;;;;;;;5.36;49.72;93615.84;2057777;69;20051;-76
2023/02/17 07:02:16;;;;;;;;;;;;;;;5.86;48.91;93617.03;2057864;69;20120;-77
2023/02/17 07:04:42;;;;;;;;;;;;;;;6.10;48.48;93620.59;2057444;69;20100;-78
2023/02/17 07:07:08;;;;;;;;;;;;;;;6.20;47.87;93618.72;2057614;69;20058;-78
2023/02/17 07:09:33;;;;;;;;;;;;;;;6.03;48.21;93621.34;2057233;69;20113;-75
2023/02/17 07:11:59;;;;;;;;;;;;;;;6.25;47.64;93619.84;2057336;69;20050;-74
2023/02/17 07:14:25;;;;;;;;;;;;;;;6.33;47.17;93610.13;2057654;69;20086;-74
2023/02/17 07:16:50;;;;;;;;;;;;;;;6.33;47.29;93621.31;2057850;69;20137;-77
2023/02/17 07:19:16;;;;;;;;;;;;;;;6.50;46.99;93625.56;2057767;69;20066;-80
2023/02/17 07:21:41;;;;;;;;;;;;;;;6.43;47.55;93606.78;2058142;69;20137;-76
2023/02/17 07:24:07;;;;;;;;;;;;;;;6.56;46.89;93614.94;2057188;69;20533;-75
2023/02/17 07:26:36;;;;;;;;;;;;;;;6.26;47.88;93622.06;2057503;69;20510;-74
2023/02/17 07:29:02;;;;;;;;;;;;;;;6.62;47.20;93618.28;2058216;69;20057;-75
2023/02/17 07:31:27;;;;;;;;;;;;;;;6.72;47.00;93613.59;2058006;69;20057;-77
2023/02/17 07:33:53;;;;;;;;;;;;;;;6.85;47.20;93618.97;2058277;69;20089;-80
2023/02/17 07:36:18;;;;;;;;;;;;;;;6.99;45.17;93621.53;2057733;69;20077;-81
2023/02/17 07:38:44;;;;;;;;;;;;;;;6.93;46.53;93626.59;2057959;69;20502;-80
2023/02/17 07:41:11;;;;;;;;;;;;;;;7.12;46.57;93629.69;2058290;69;20057;-82
2023/02/17 07:43:37;;;;;;;;;;;;;;;6.63;47.21;93626.09;2057890;69;20053;-82
2023/02/17 07:46:03;;;;;;;;;;;;;;;6.67;47.42;93627.78;2057400;69;20058;-77
2023/02/17 07:48:28;;;;;;;;;;;;;;;6.75;47.29;93629.25;2058204;69;20429;-76
2023/02/17 07:50:54;;;;;;;;;;;;;;;6.55;47.58;93628.19;2058496;69;20049;-75
2023/02/17 07:53:19;;;;;;;;;;;;;;;6.94;47.04;93622.50;2055363;69;20422;-81
2023/02/17 07:55:45;;;;;;;;;;;;;;;7.12;46.16;93615.69;2054803;69;20127;-74
2023/02/17 07:58:10;;;;;;;;;;;;;;;7.28;43.64;93624.75;2054941;69;20418;-81
2023/02/17 08:00:36;;;;;;;;;;;;;;;7.38;43.81;93622.88;2058339;69;20077;-80
2023/02/17 08:03:01;;;;;;;;;;;;;;;7.33;43.55;93615.41;2058275;69;20086;-79
2023/02/17 08:05:28;;;;;;;;;;;;;;;7.43;44.48;93613.50;2058252;69;20076;-80
2023/02/17 08:13:22;;;;;;;;;;;;;;;7.90;44.20;93615.44;2058415;69;20182;-82
2023/02/17 08:15:48;;;;;;;;;;;;;;;7.79;42.43;93610.28;2058083;69;20045;-81
2023/02/17 08:18:13;;;;;;;;;;;;;;;8.04;42.64;93618.69;2057767;69;20109;-81
2023/02/17 08:20:39;;;;;;;;;;;;;;;7.69;45.06;93631.81;2057662;69;20418;-82
2023/02/17 08:23:04;;;;;;;;;;;;;;;8.00;44.63;93635.16;2058550;69;20065;-77
2023/02/17 08:25:31;;;;;;;;;;;;;;;7.99;44.79;93630.88;2059062;69;20050;-81
2023/02/17 08:27:56;;;;;;;;;;;;;;;8.07;44.18;93631.56;2056035;69;20050;-81
2023/02/17 08:30:22;;;;;;;;;;;;;;;8.24;43.36;93630.88;2055729;70;20046;-81
2023/02/17 08:32:48;;;;;;;;;;;;;;;8.47;42.99;93632.75;2056035;69;20046;-75
2023/02/17 08:35:14;;;;;;;;;;;;;;;8.70;43.07;93632.53;2058800;69;20074;-81
2023/02/17 08:37:39;;;;;;;;;;;;;;;8.76;43.30;93628.19;2058659;69;20204;-82
2023/02/17 08:40:05;;;;;;;;;;;;;;;8.75;42.39;93626.72;2058175;69;20493;-78
2023/02/17 08:42:31;;;;;;;;;;;;;;;8.93;42.54;93637.94;2058637;69;20053;-82
2023/02/17 08:44:56;;;;;;;;;;;;;;;9.00;43.33;93632.25;2057949;69;20144;-78
2023/02/17 08:47:22;;;;;;;;;;;;;;;9.08;42.86;93626.53;2058339;69;20132;-80
2023/02/17 08:49:47;;;;;;;;;;;;;;;9.16;42.15;93630.75;2058626;69;20124;-80
2023/02/17 08:52:12;;;;;;;;;;;;;;;9.31;41.65;93632.63;2058883;69;20077;-81
2023/02/17 08:54:38;;;;;;;;;;;;;;;9.52;41.58;93637.03;2060500;69;20098;-81
2023/02/17 08:57:03;;;;;;;;;;;;;;;9.59;41.82;93625.72;2062487;69;20086;-78
2023/02/17 08:59:29;;;;;;;;;;;;;;;9.60;41.31;93630.00;2063212;69;20050;-80
2023/02/17 09:01:55;;;;;;;;;;;;;;;9.78;41.39;93627.88;2060093;69;20049;-80
2023/02/17 09:04:20;;;;;;;;;;;;;;;9.68;41.00;93622.22;2059435;69;20049;-82
2023/02/17 09:06:47;;;;;;;;;;;;;;;9.90;40.54;93634.47;2058065;69;20122;-81
2023/02/17 09:09:14;;;;;;;;;;;;;;;9.86;40.83;93628.53;2059507;69;20782;-84
2023/02/17 09:11:41;;;;;;;;;;;;;;;9.89;40.98;93612.53;2057308;69;20465;-85
2023/02/17 09:14:07;;;;;;;;;;;;;;;10.05;41.34;93613.06;2054720;69;20445;-84
2023/02/17 09:16:32;;;;;;;;;;;;;;;10.08;40.86;93614.69;2057235;69;20054;-82
2023/02/17 09:18:58;;;;;;;;;;;;;;;10.06;37.95;93608.91;2058287;69;20085;-82
2023/02/17 09:21:23;;;;;;;;;;;;;;;10.15;39.51;93605.41;2058019;69;20080;-80
2023/02/17 09:23:49;;;;;;;;;;;;;;;10.33;37.35;93611.72;2058698;69;20056;-80
2023/02/17 09:26:15;;;;;;;;;;;;;;;10.52;36.21;93608.19;2058495;69;20066;-80
2023/02/17 09:28:41;;;;;;;;;;;;;;;10.69;35.75;93605.28;2058658;69;20104;-76
2023/02/17 09:31:08;;;;;;;;;;;;;;;11.19;35.72;93616.72;2057805;69;20062;-79
2023/02/17 09:33:33;;;;;;;;;;;;;;;11.59;35.43;93614.59;2057713;69;20090;-82
2023/02/17 09:35:59;;;;;;;;;;;;;;;11.52;36.96;93615.50;2057429;69;20044;-81
2023/02/17 09:38:24;;;;;;;;;;;;;;;10.81;39.26;93627.94;2058551;69;20060;-81
2023/02/17 09:40:50;;;;;;;;;;;;;;;11.10;38.95;93634.38;2058412;69;20042;-80
2023/02/17 09:43:22;;;;;;;;;;;;;;;11.31;39.36;93636.59;2058245;69;20062;-75
2023/02/17 09:45:53;;;;;;;;;;;;;;;11.16;39.28;93640.44;2057623;69;20050;-80
2023/02/17 09:48:20;;;;;;;;;;;;;;;11.23;38.82;93644.47;2058277;69;20062;-80
2023/02/17 09:50:48;;;;;;;;;;;;;;;11.36;37.77;93644.03;2058367;69;20086;-78
2023/02/17 09:53:26;;;;;;;;;;;;;;;11.68;36.51;93653.31;2058279;69;20062;-85
2023/02/17 09:55:53;;;;;;;;;;;;;;;11.57;37.66;93632.13;2057719;69;20566;-78
2023/02/17 09:58:24;;;;;;;;;;;;;;;11.76;37.00;93636.97;2058461;69;20485;-78
2023/02/17 10:00:53;;;;;;;;;;;;;;;11.90;37.18;93626.72;2057574;69;20138;-78
2023/02/17 10:03:21;;;;;;;;;;;;;;;11.92;37.49;93632.53;2057625;69;20141;-77
2023/02/17 10:05:53;;;;;;;;;;;;;;;12.10;36.06;93623.88;2058503;69;20523;-77
2023/02/17 10:08:26;;;;;;;;;;;;;;;12.30;34.70;93613.97;2058446;69;20046;-77
2023/02/17 10:11:07;;;;;;;;;;;;;;;12.17;34.90;93615.22;2058512;69;20468;-80
2023/02/17 10:13:33;;;;;;;;;;;;;;;12.63;34.40;93619.75;2058690;69;20050;-79
2023/02/17 10:16:02;;;;;;;;;;;;;;;12.72;32.80;93616.13;2058419;69;20137;-79
2023/02/17 10:18:45;;;;;;;;;;;;;;;13.14;33.55;93611.81;2058357;69;20046;-80
2023/02/17 10:21:18;;;;;;;;;;;;;;;13.62;33.28;93607.16;2058388;69;20053;-77
2023/02/17 10:23:44;;;;;;;;;;;;;;;13.99;32.48;93610.94;2058890;69;20084;-79
2023/02/17 10:26:29;;;;;;;;;;;;;;;14.12;31.47;93597.53;2058690;69;20082;-79
2023/02/17 10:29:01;;;;;;;;;;;;;;;14.06;30.64;93605.66;2058569;69;20077;-80
2023/02/17 10:31:30;;;;;;;;;;;;;;;14.16;30.59;93597.81;2058367;69;20120;-76
2023/02/17 10:34:03;;;;;;;;;;;;;;;14.06;31.18;93603.53;2058482;69;20166;-78
2023/02/17 10:36:29;;;;;;;;;;;;;;;14.00;31.24;93594.69;2058517;69;20137;-80
2023/02/17 10:39:04;;;;;;;;;;;;;;;13.85;30.26;93600.81;2058489;69;20487;-79
2023/02/17 10:41:35;;;;;;;;;;;;;;;13.70;31.03;93610.50;2058372;69;20053;-80
2023/02/17 10:44:05;;;;;;;;;;;;;;;13.88;30.46;93617.31;2058470;69;20046;-79
2023/02/17 10:46:31;;;;;;;;;;;;;;;13.89;30.76;93615.97;2058327;69;20100;-79
2023/02/17 10:48:57;;;;;;;;;;;;;;;13.70;30.18;93614.06;2058828;69;20145;-79
2023/02/17 10:51:27;;;;;;;;;;;;;;;13.52;31.53;93615.72;2058554;69;20061;-78
2023/02/17 10:53:56;;;;;;;;;;;;;;;13.65;31.66;93612.34;2058657;69;20046;-78
2023/02/17 10:56:33;;;;;;;;;;;;;;;13.82;33.02;93613.34;2058562;69;20058;-79
2023/02/17 10:58:59;;;;;;;;;;;;;;;14.05;33.70;93604.16;2058502;69;20057;-80
2023/02/17 11:01:26;;;;;;;;;;;;;;;14.23;33.53;93594.72;2058457;69;20054;-79
2023/02/17 11:04:03;;;;;;;;;;;;;;;14.11;32.38;93596.81;2058484;69;20050;-80
2023/02/17 11:06:29;;;;;;;;;;;;;;;14.47;31.20;93598.28;2058472;69;20054;-79
2023/02/17 11:08:57;;;;;;;;;;;;;;;14.60;29.98;93587.72;2058445;69;20057;-79
2023/02/17 11:11:24;;;;;;;;;;;;;;;14.89;30.33;93588.06;2058391;69;20060;-79
2023/02/17 11:13:55;;;;;;;;;;;;;;;14.77;29.72;93595.09;2058380;69;20057;-76
2023/02/17 11:16:25;;;;;;;;;;;;;;;14.78;30.80;93599.41;2058405;69;20057;-79
2023/02/17 11:18:51;;;;;;;;;;;;;;;14.87;30.69;93590.75;2058333;69;20080;-80
2023/02/17 11:21:17;;;;;;;;;;;;;;;14.82;32.05;93586.22;2058355;69;20053;-79
2023/02/17 11:23:48;;;;;;;;;;;;;;;15.01;30.31;93582.34;2058393;69;20061;-79
2023/02/17 11:26:21;;;;;;;;;;;;;;;15.66;29.38;93580.41;2058342;69;20085;-80
2023/02/17 11:28:47;;;;;;;;;;;;;;;15.53;28.40;93572.53;2058303;69;20061;-76
2023/02/17 11:31:23;;;;;;;;;;;;;;;15.30;29.11;93572.66;2058371;69;20068;-77
2023/02/17 11:33:48;;;;;;;;;;;;;;;15.34;29.36;93561.53;2058363;69;20080;-78
2023/02/17 11:36:24;;;;;;;;;;;;;;;17.20;29.14;93566.50;2058365;69;20597;-77
2023/02/17 11:38:50;;;;;;;;;;;;;;;16.95;28.48;93558.84;2058466;69;20050;-78
2023/02/17 11:41:16;;;;;;;;;;;;;;;21.24;24.57;93547.22;2058315;69;20046;-75
2023/02/17 11:43:51;;;;;;;;;;;;;;;23.24;21.81;93538.34;2058346;69;20116;-75
2023/02/17 11:46:25;;;;;;;;;;;;;;;22.42;22.07;93549.63;2058608;69;20149;-76
2023/02/17 11:49:18;;;;;;;;;;;;;;;24.47;20.22;93545.00;2058315;69;20558;-75
2023/02/17 11:51:56;;;;;;;;;;;;;;;25.66;19.48;93540.19;2058408;69;20054;-76
2023/02/17 11:54:35;;;;;;;;;;;;;;;24.96;20.48;93532.34;2058556;69;20054;-75
2023/02/17 11:57:21;;;;;;;;;;;;;;;25.99;19.15;93520.59;2057845;69;20057;-77
2023/02/17 11:59:46;;;;;;;;;;;;;;;28.51;17.91;93530.75;2059211;69;20071;-75
2023/02/17 12:02:14;;;;;;;;;;;;;;;28.30;17.83;93527.66;2058145;69;20129;-75
2023/02/17 12:05:01;;;;;;;;;;;;;;;25.73;19.79;93532.38;2058389;69;20116;-75
2023/02/17 12:07:59;;;;;;;;;;;;;;;23.74;20.37;93518.13;2058403;69;20074;-76
2023/02/17 12:10:37;;;;;;;;;;;;;;;22.64;21.43;93509.41;2052295;69;20050;-77
2023/02/17 12:13:02;;;;;;;;;;;;;;;22.80;21.86;93501.97;2058304;69;20156;-74
2023/02/17 12:15:33;;;;;;;;;;;;;;;22.49;22.63;93511.09;2058315;69;20222;-75
2023/02/17 12:18:02;;;;;;;;;;;;;;;22.82;22.33;93513.50;2057719;69;20054;-76
2023/02/17 12:20:30;;;;;;;;;;;;;;;22.07;22.21;93514.13;2058342;69;20119;-75
2023/02/17 12:22:58;;;;;;;;;;;;;;;20.78;23.85;93515.56;2058295;69;20069;-75
2023/02/17 12:25:32;;;;;;;;;;;;;;;20.74;24.46;93509.72;2058364;69;20073;-76
2023/02/17 12:28:11;;;;;;;;;;;;;;;20.49;24.69;93513.81;2058254;69;20054;-75
2023/02/17 12:30:55;;;;;;;;;;;;;;;20.78;24.37;93506.25;2058323;69;20089;-75
2023/02/17 12:33:33;;;;;;;;;;;;;;;20.45;25.27;93505.06;2058069;69;20492;-75
2023/02/17 12:36:04;;;;;;;;;;;;;;;20.31;24.44;93510.25;2058305;69;20058;-75
2023/02/17 12:38:31;;;;;;;;;;;;;;;19.93;25.06;93495.97;2057737;69;20085;-75
2023/02/17 12:41:07;;;;;;;;;;;;;;;19.29;25.52;93495.56;2058265;69;20072;-77
2023/02/17 12:43:35;;;;;;;;;;;;;;;19.58;26.23;93498.81;2058150;69;20557;-76
2023/02/17 12:46:04;;;;;;;;;;;;;;;19.34;25.96;93490.03;2058095;69;20452;-76
2023/02/17 12:48:41;;;;;;;;;;;;;;;19.07;26.79;93491.03;2058055;69;20120;-78
2023/02/17 12:51:19;;;;;;;;;;;;;;;19.21;26.78;93492.38;2058207;69;20053;-77
2023/02/17 12:53:50;;;;;;;;;;;;;;;19.61;26.64;93495.44;2058305;69;20096;-77
2023/02/17 12:56:18;;;;;;;;;;;;;;;20.45;26.48;93498.59;2058233;69;20174;-75
2023/02/17 12:58:44;;;;;;;;;;;;;;;19.87;26.39;93497.84;2058416;69;20042;-76
2023/02/17 13:01:12;;;;;;;;;;;;;;;19.50;27.27;93482.81;2058148;69;20048;-75